sensor_id;sensor_type;location;lat;lon;timestamp;pressure;altitude;pressure_sealevel;temperature;humidity
24230;BME280;12362;50.004;8.006;2023-03-14T00:00:08;98680.25;;;11.12;100.00
24230;BME280;12362;50.004;8.006;2023-03-14T00:02:35;98683.19;;;11.19;100.00
24230;BME280;12362;50.004;8.006;2023-03-14T00:05:00;98681.09;;;11.13;100.00
24230;BME280;12362;50.004;8.006;2023-03-14T00:07:35;98690.38;;;11.26;100.00
24230;BME280;12362;50.004;8.006;2023-03-14T00:10:10;98678.56;;;11.22;100.00
24230;BME280;12362;50.004;8.006;2023-03-14T00:12:37;98666.75;;;11.29;100.00
24230;BME280;12362;50.004;8.006;2023-03-14T00:15:03;98677.25;;;11.28;100.00
24230;BME280;12362;50.004;8.006;2023-03-14T00:17:30;98662.63;;;11.16;100.00
24230;BME280;12362;50.004;8.006;2023-03-14T00:19:56;98667.03;;;11.15;100.00
24230;BME280;12362;50.004;8.006;2023-03-14T00:22:21;98671.13;;;11.18;100.00
24230;BME280;12362;50.004;8.006;2023-03-14T00:24:47;98663.34;;;11.18;100.00
24230;BME280;12362;50.004;8.006;2023-03-14T00:27:13;98663.69;;;11.24;100.00
24230;BME280;12362;50.004;8.006;2023-03-14T00:29:38;98646.66;;;11.31;100.00
24230;BME280;12362;50.004;8.006;2023-03-14T00:32:04;98629.19;;;11.33;100.00
24230;BME280;12362;50.004;8.006;2023-03-14T00:34:31;98621.19;;;11.25;100.00
24230;BME280;12362;50.004;8.006;2023-03-14T00:36:59;98621.66;;;11.30;100.00
24230;BME280;12362;50.004;8.006;2023-03-14T00:39:25;98616.56;;;11.29;100.00
24230;BME280;12362;50.004;8.006;2023-03-14T00:41:50;98618.22;;;11.30;100.00
24230;BME280;12362;50.004;8.006;2023-03-14T00:44:16;98608.53;;;11.32;100.00
24230;BME280;12362;50.004;8.006;2023-03-14T00:46:41;98591.28;;;11.31;100.00
24230;BME280;12362;50.004;8.006;2023-03-14T00:49:07;98603.94;;;11.24;100.00
24230;BME280;12362;50.004;8.006;2023-03-14T00:51:32;98608.56;;;11.21;100.00
24230;BME280;12362;50.004;8.006;2023-03-14T00:53:59;98612.69;;;11.23;100.00
24230;BME280;12362;50.004;8.006;2023-03-14T00:56:25;98617.06;;;11.23;100.00
24230;BME280;12362;50.004;8.006;2023-03-14T00:58:53;98617.88;;;11.23;100.00
24230;BME280;12362;50.004;8.006;2023-03-14T01:01:19;98625.56;;;11.25;100.00
24230;BME280;12362;50.004;8.006;2023-03-14T01:03:45;98623.44;;;11.19;100.00
24230;BME280;12362;50.004;8.006;2023-03-14T01:06:16;98626.16;;;11.17;100.00
24230;BME280;12362;50.004;8.006;2023-03-14T01:08:43;98606.06;;;11.19;100.00
24230;BME280;12362;50.004;8.006;2023-03-14T01:11:11;98607.50;;;11.12;100.00
24230;BME280;12362;50.004;8.006;2023-03-14T01:13:37;98614.81;;;11.07;100.00
24230;BME280;12362;50.004;8.006;2023-03-14T01:16:06;98610.25;;;11.00;100.00
24230;BME280;12362;50.004;8.006;2023-03-14T01:18:36;98613.06;;;11.08;100.00
24230;BME280;12362;50.004;8.006;2023-03-14T01:21:04;98593.72;;;11.12;100.00
24230;BME280;12362;50.004;8.006;2023-03-14T01:23:30;98605.06;;;11.11;100.00
24230;BME280;12362;50.004;8.006;2023-03-14T01:25:55;98612.38;;;11.06;100.00
24230;BME280;12362;50.004;8.006;2023-03-14T01:28:21;98611.19;;;11.10;100.00
24230;BME280;12362;50.004;8.006;2023-03-14T01:30:46;98608.97;;;11.05;100.00
24230;BME280;12362;50.004;8.006;2023-03-14T01:33:12;98607.41;;;11.03;100.00
24230;BME280;12362;50.004;8.006;2023-03-14T01:35:41;98603.28;;;11.00;100.00
24230;BME280;12362;50.004;8.006;2023-03-14T01:38:07;98597.50;;;10.97;100.00
24230;BME280;12362;50.004;8.006;2023-03-14T01:40:33;98591.38;;;10.98;100.00
24230;BME280;12362;50.004;8.006;2023-03-14T01:43:12;98580.63;;;11.02;100.00
24230;BME280;12362;50.004;8.006;2023-03-14T01:48:39;98581.72;;;10.89;100.00
24230;BME280;12362;50.004;8.006;2023-03-14T01:51:09;98576.28;;;10.92;100.00
24230;BME280;12362;50.004;8.006;2023-03-14T01:53:37;98567.69;;;10.81;100.00
24230;BME280;12362;50.004;8.006;2023-03-14T01:56:05;98562.13;;;10.85;100.00
24230;BME280;12362;50.004;8.006;2023-03-14T01:58:32;98556.09;;;10.84;100.00
24230;BME280;12362;50.004;8.006;2023-03-14T02:01:01;98552.56;;;10.85;100.00
24230;BME280;12362;50.004;8.006;2023-03-14T02:03:30;98545.03;;;10.83;100.00
24230;BME280;12362;50.004;8.006;2023-03-14T02:06:04;98539.75;;;10.73;100.00
24230;BME280;12362;50.004;8.006;2023-03-14T02:08:33;98523.66;;;10.79;100.00
24230;BME280;12362;50.004;8.006;2023-03-14T02:11:03;98521.69;;;10.72;100.00
24230;BME280;12362;50.004;8.006;2023-03-14T02:13:48;98519.78;;;10.74;100.00
24230;BME280;12362;50.004;8.006;2023-03-14T02:16:25;98514.59;;;10.74;100.00
24230;BME280;12362;50.004;8.006;2023-03-14T02:19:04;98498.69;;;10.67;100.00
24230;BME280;12362;50.004;8.006;2023-03-14T02:22:09;98491.50;;;10.71;100.00
24230;BME280;12362;50.004;8.006;2023-03-14T02:27:38;98487.72;;;10.64;100.00
24230;BME280;12362;50.004;8.006;2023-03-14T02:32:33;98472.38;;;10.61;100.00
24230;BME280;12362;50.004;8.006;2023-03-14T02:35:05;98467.94;;;10.52;100.00
24230;BME280;12362;50.004;8.006;2023-03-14T02:40:09;98482.78;;;10.50;100.00
24230;BME280;12362;50.004;8.006;2023-03-14T02:42:37;98482.00;;;10.38;100.00
24230;BME280;12362;50.004;8.006;2023-03-14T02:47:43;98483.97;;;10.57;100.00
24230;BME280;12362;50.004;8.006;2023-03-14T02:50:13;98485.16;;;10.53;100.00
24230;BME280;12362;50.004;8.006;2023-03-14T02:52:40;98482.22;;;10.46;100.00
24230;BME280;12362;50.004;8.006;2023-03-14T02:55:07;98477.50;;;10.51;100.00
24230;BME280;12362;50.004;8.006;2023-03-14T02:57:35;98475.00;;;10.50;100.00
24230;BME280;12362;50.004;8.006;2023-03-14T03:00:03;98485.38;;;10.50;100.00
24230;BME280;12362;50.004;8.006;2023-03-14T03:02:35;98491.84;;;10.55;100.00
24230;BME280;12362;50.004;8.006;2023-03-14T03:05:09;98487.69;;;10.75;100.00
24230;BME280;12362;50.004;8.006;2023-03-14T03:07:35;98506.13;;;10.72;100.00
24230;BME280;12362;50.004;8.006;2023-03-14T03:10:00;98496.91;;;10.68;100.00
24230;BME280;12362;50.004;8.006;2023-03-14T03:12:30;98496.44;;;10.63;100.00
24230;BME280;12362;50.004;8.006;2023-03-14T03:14:55;98497.28;;;10.63;100.00
24230;BME280;12362;50.004;8.006;2023-03-14T03:17:21;98482.41;;;10.54;100.00
24230;BME280;12362;50.004;8.006;2023-03-14T03:19:46;98481.25;;;10.58;100.00
24230;BME280;12362;50.004;8.006;2023-03-14T03:22:12;98484.69;;;10.59;100.00
24230;BME280;12362;50.004;8.006;2023-03-14T03:24:39;98475.13;;;10.59;100.00
24230;BME280;12362;50.004;8.006;2023-03-14T03:27:09;98476.63;;;10.62;100.00
24230;BME280;12362;50.004;8.006;2023-03-14T03:29:35;98468.47;;;10.66;100.00
24230;BME280;12362;50.004;8.006;2023-03-14T03:32:04;98481.69;;;10.74;100.00
24230;BME280;12362;50.004;8.006;2023-03-14T03:34:29;98487.25;;;10.70;100.00
24230;BME280;12362;50.004;8.006;2023-03-14T03:36:56;98475.13;;;10.59;100.00
24230;BME280;12362;50.004;8.006;2023-03-14T03:39:22;98476.66;;;10.51;100.00
24230;BME280;12362;50.004;8.006;2023-03-14T03:41:48;98466.84;;;10.54;100.00
24230;BME280;12362;50.004;8.006;2023-03-14T03:44:13;98467.78;;;10.64;100.00
24230;BME280;12362;50.004;8.006;2023-03-14T03:46:39;98449.41;;;10.56;100.00
24230;BME280;12362;50.004;8.006;2023-03-14T03:49:06;98443.63;;;10.53;100.00
24230;BME280;12362;50.004;8.006;2023-03-14T03:51:32;98441.16;;;10.51;100.00
24230;BME280;12362;50.004;8.006;2023-03-14T03:53:59;98441.66;;;10.45;100.00
24230;BME280;12362;50.004;8.006;2023-03-14T03:56:29;98450.41;;;10.33;100.00
24230;BME280;12362;50.004;8.006;2023-03-14T03:58:57;98438.31;;;10.54;100.00
24230;BME280;12362;50.004;8.006;2023-03-14T04:01:23;98438.03;;;10.68;100.00
24230;BME280;12362;50.004;8.006;2023-03-14T04:03:53;98437.44;;;10.76;100.00
24230;BME280;12362;50.004;8.006;2023-03-14T04:06:19;98440.34;;;10.82;100.00
24230;BME280;12362;50.004;8.006;2023-03-14T04:08:46;98428.66;;;10.87;100.00
24230;BME280;12362;50.004;8.006;2023-03-14T04:11:27;98438.94;;;10.78;100.00
24230;BME280;12362;50.004;8.006;2023-03-14T04:14:02;98437.50;;;10.85;100.00
24230;BME280;12362;50.004;8.006;2023-03-14T04:16:28;98441.06;;;10.84;100.00
24230;BME280;12362;50.004;8.006;2023-03-14T04:19:03;98434.06;;;10.84;100.00
24230;BME280;12362;50.004;8.006;2023-03-14T04:21:30;98438.31;;;10.85;100.00
24230;BME280;12362;50.004;8.006;2023-03-14T04:23:56;98436.44;;;10.87;100.00
24230;BME280;12362;50.004;8.006;2023-03-14T04:26:23;98440.50;;;10.81;100.00
24230;BME280;12362;50.004;8.006;2023-03-14T04:28:49;98436.34;;;10.78;100.00
24230;BME280;12362;50.004;8.006;2023-03-14T04:31:17;98421.63;;;10.79;100.00
24230;BME280;12362;50.004;8.006;2023-03-14T04:33:44;98424.81;;;10.71;100.00
24230;BME280;12362;50.004;8.006;2023-03-14T04:36:09;98413.50;;;10.72;100.00
24230;BME280;12362;50.004;8.006;2023-03-14T04:38:35;98416.09;;;10.72;100.00
24230;BME280;12362;50.004;8.006;2023-03-14T04:41:02;98415.75;;;10.66;100.00
24230;BME280;12362;50.004;8.006;2023-03-14T04:43:31;98407.84;;;10.67;100.00
24230;BME280;12362;50.004;8.006;2023-03-14T04:46:02;98408.69;;;10.68;100.00
24230;BME280;12362;50.004;8.006;2023-03-14T04:48:28;98408.63;;;10.79;100.00
24230;BME280;12362;50.004;8.006;2023-03-14T04:50:55;98413.81;;;10.79;100.00
24230;BME280;12362;50.004;8.006;2023-03-14T04:53:20;98409.56;;;10.78;100.00
24230;BME280;12362;50.004;8.006;2023-03-14T04:55:49;98406.41;;;10.74;100.00
24230;BME280;12362;50.004;8.006;2023-03-14T04:58:15;98402.59;;;10.78;100.00
24230;BME280;12362;50.004;8.006;2023-03-14T05:00:42;98391.53;;;10.76;100.00
24230;BME280;12362;50.004;8.006;2023-03-14T05:03:18;98389.31;;;10.72;100.00
24230;BME280;12362;50.004;8.006;2023-03-14T05:05:54;98383.06;;;10.74;100.00
24230;BME280;12362;50.004;8.006;2023-03-14T05:08:33;98384.94;;;10.72;100.00
24230;BME280;12362;50.004;8.006;2023-03-14T05:11:12;98383.66;;;10.67;100.00
24230;BME280;12362;50.004;8.006;2023-03-14T05:14:01;98384.63;;;10.66;100.00
24230;BME280;12362;50.004;8.006;2023-03-14T05:16:45;98394.28;;;10.64;100.00
24230;BME280;12362;50.004;8.006;2023-03-14T05:19:28;98388.63;;;10.70;100.00
24230;BME280;12362;50.004;8.006;2023-03-14T05:22:18;98385.06;;;10.71;100.00
24230;BME280;12362;50.004;8.006;2023-03-14T05:24:46;98391.69;;;10.64;100.00
24230;BME280;12362;50.004;8.006;2023-03-14T05:27:27;98383.53;;;10.68;100.00
24230;BME280;12362;50.004;8.006;2023-03-14T05:30:03;98389.00;;;10.65;100.00
24230;BME280;12362;50.004;8.006;2023-03-14T05:32:37;98382.16;;;10.64;100.00
24230;BME280;12362;50.004;8.006;2023-03-14T05:35:17;98385.00;;;10.61;100.00
24230;BME280;12362;50.004;8.006;2023-03-14T05:37:55;98386.06;;;10.59;100.00
24230;BME280;12362;50.004;8.006;2023-03-14T05:40:40;98388.91;;;10.56;100.00
24230;BME280;12362;50.004;8.006;2023-03-14T05:43:06;98383.72;;;10.56;100.00
24230;BME280;12362;50.004;8.006;2023-03-14T05:45:48;98398.44;;;10.55;100.00
24230;BME280;12362;50.004;8.006;2023-03-14T05:48:32;98382.41;;;10.61;100.00
24230;BME280;12362;50.004;8.006;2023-03-14T05:51:13;98386.41;;;10.54;100.00
24230;BME280;12362;50.004;8.006;2023-03-14T05:54:02;98382.06;;;10.55;100.00
24230;BME280;12362;50.004;8.006;2023-03-14T05:56:50;98387.25;;;10.55;100.00
24230;BME280;12362;50.004;8.006;2023-03-14T05:59:34;98377.19;;;10.61;100.00
24230;BME280;12362;50.004;8.006;2023-03-14T06:02:23;98385.03;;;10.50;100.00
24230;BME280;12362;50.004;8.006;2023-03-14T06:04:58;98378.06;;;10.51;100.00
24230;BME280;12362;50.004;8.006;2023-03-14T06:07:23;98375.94;;;10.56;100.00
24230;BME280;12362;50.004;8.006;2023-03-14T06:09:49;98379.34;;;10.56;100.00
24230;BME280;12362;50.004;8.006;2023-03-14T06:12:17;98364.84;;;10.54;100.00
24230;BME280;12362;50.004;8.006;2023-03-14T06:14:44;98374.28;;;10.55;100.00
24230;BME280;12362;50.004;8.006;2023-03-14T06:17:10;98365.94;;;10.51;100.00
24230;BME280;12362;50.004;8.006;2023-03-14T06:19:44;98372.75;;;10.52;100.00
24230;BME280;12362;50.004;8.006;2023-03-14T06:22:12;98370.22;;;10.62;100.00
24230;BME280;12362;50.004;8.006;2023-03-14T06:24:37;98369.34;;;10.52;100.00
24230;BME280;12362;50.004;8.006;2023-03-14T06:27:04;98364.59;;;10.57;100.00
24230;BME280;12362;50.004;8.006;2023-03-14T06:29:30;98365.66;;;10.54;100.00
24230;BME280;12362;50.004;8.006;2023-03-14T06:31:55;98358.84;;;10.53;100.00
24230;BME280;12362;50.004;8.006;2023-03-14T06:34:24;98362.81;;;10.57;100.00
24230;BME280;12362;50.004;8.006;2023-03-14T06:36:52;98362.00;;;10.57;100.00
24230;BME280;12362;50.004;8.006;2023-03-14T06:39:18;98349.47;;;10.62;100.00
24230;BME280;12362;50.004;8.006;2023-03-14T06:41:47;98357.56;;;10.68;100.00
24230;BME280;12362;50.004;8.006;2023-03-14T06:44:12;98353.59;;;10.64;100.00
24230;BME280;12362;50.004;8.006;2023-03-14T06:46:38;98353.59;;;10.64;100.00
24230;BME280;12362;50.004;8.006;2023-03-14T06:49:03;98353.34;;;10.67;100.00
24230;BME280;12362;50.004;8.006;2023-03-14T06:51:31;98345.53;;;10.67;100.00
24230;BME280;12362;50.004;8.006;2023-03-14T06:53:58;98349.94;;;10.67;100.00
24230;BME280;12362;50.004;8.006;2023-03-14T08:47:16;98350.81;;;11.68;100.00
24230;BME280;12362;50.004;8.006;2023-03-14T08:49:46;98353.50;;;11.57;100.00
24230;BME280;12362;50.004;8.006;2023-03-14T08:52:12;98360.00;;;11.72;100.00
24230;BME280;12362;50.004;8.006;2023-03-14T08:54:57;98354.31;;;11.57;100.00
24230;BME280;12362;50.004;8.006;2023-03-14T08:57:41;98359.53;;;11.57;100.00
24230;BME280;12362;50.004;8.006;2023-03-14T09:00:22;98354.97;;;11.79;100.00
24230;BME280;12362;50.004;8.006;2023-03-14T09:02:54;98348.34;;;12.05;100.00
24230;BME280;12362;50.004;8.006;2023-03-14T09:08:15;98334.69;;;12.98;100.00
24230;BME280;12362;50.004;8.006;2023-03-14T09:10:44;98347.28;;;12.83;100.00
24230;BME280;12362;50.004;8.006;2023-03-14T09:13:24;98344.25;;;12.69;100.00
24230;BME280;12362;50.004;8.006;2023-03-14T09:18:53;98361.13;;;12.37;100.00
24230;BME280;12362;50.004;8.006;2023-03-14T09:21:27;98351.00;;;12.71;100.00
24230;BME280;12362;50.004;8.006;2023-03-14T09:23:58;98343.84;;;12.83;100.00
24230;BME280;12362;50.004;8.006;2023-03-14T09:26:42;98343.84;;;12.83;100.00
24230;BME280;12362;50.004;8.006;2023-03-14T09:29:18;98356.59;;;12.48;100.00
24230;BME280;12362;50.004;8.006;2023-03-14T09:31:55;98364.41;;;12.39;100.00
24230;BME280;12362;50.004;8.006;2023-03-14T09:34:53;98360.97;;;12.19;100.00
24230;BME280;12362;50.004;8.006;2023-03-14T09:37:27;98369.88;;;12.26;100.00
24230;BME280;12362;50.004;8.006;2023-03-14T09:40:06;98368.78;;;12.19;100.00
24230;BME280;12362;50.004;8.006;2023-03-14T09:43:15;98376.75;;;12.37;100.00
24230;BME280;12362;50.004;8.006;2023-03-14T09:49:30;98369.88;;;12.73;100.00
24230;BME280;12362;50.004;8.006;2023-03-14T09:52:35;98364.44;;;12.67;100.00
24230;BME280;12362;50.004;8.006;2023-03-14T09:55:57;98365.91;;;12.51;100.00
24230;BME280;12362;50.004;8.006;2023-03-14T09:58:54;98372.38;;;12.47;100.00
24230;BME280;12362;50.004;8.006;2023-03-14T10:01:44;98374.41;;;12.34;100.00
24230;BME280;12362;50.004;8.006;2023-03-14T10:04:25;98371.94;;;12.42;100.00
24230;BME280;12362;50.004;8.006;2023-03-14T10:06:58;98365.63;;;12.44;100.00
24230;BME280;12362;50.004;8.006;2023-03-14T10:10:08;98360.03;;;12.39;100.00
24230;BME280;12362;50.004;8.006;2023-03-14T10:12:45;98361.25;;;12.45;100.00
24230;BME280;12362;50.004;8.006;2023-03-14T10:15:27;98357.72;;;12.55;100.00
24230;BME280;12362;50.004;8.006;2023-03-14T10:18:11;98353.19;;;12.48;100.00
24230;BME280;12362;50.004;8.006;2023-03-14T10:20:46;98354.97;;;12.66;100.00
24230;BME280;12362;50.004;8.006;2023-03-14T10:23:23;98346.88;;;12.50;100.00
24230;BME280;12362;50.004;8.006;2023-03-14T10:31:52;98363.88;;;12.64;100.00
24230;BME280;12362;50.004;8.006;2023-03-14T10:34:25;98363.47;;;12.49;100.00
24230;BME280;12362;50.004;8.006;2023-03-14T10:37:31;98366.50;;;12.54;100.00
24230;BME280;12362;50.004;8.006;2023-03-14T10:40:43;98372.06;;;12.50;100.00
24230;BME280;12362;50.004;8.006;2023-03-14T10:43:41;98382.22;;;12.53;100.00
24230;BME280;12362;50.004;8.006;2023-03-14T10:46:43;98366.06;;;12.68;100.00
24230;BME280;12362;50.004;8.006;2023-03-14T10:49:32;98379.34;;;12.56;100.00
24230;BME280;12362;50.004;8.006;2023-03-14T10:52:20;98376.47;;;12.68;100.00
24230;BME280;12362;50.004;8.006;2023-03-14T10:55:20;98373.06;;;12.68;100.00
24230;BME280;12362;50.004;8.006;2023-03-14T10:58:16;98372.38;;;12.94;100.00
24230;BME280;12362;50.004;8.006;2023-03-14T11:04:01;98371.28;;;13.06;100.00
24230;BME280;12362;50.004;8.006;2023-03-14T11:19:28;98396.25;;;13.08;100.00
24230;BME280;12362;50.004;8.006;2023-03-14T11:26:25;98434.34;;;12.71;100.00
24230;BME280;12362;50.004;8.006;2023-03-14T11:29:47;98458.72;;;12.70;100.00
24230;BME280;12362;50.004;8.006;2023-03-14T11:32:45;98431.91;;;13.17;100.00
24230;BME280;12362;50.004;8.006;2023-03-14T11:38:51;98465.09;;;12.96;100.00
24230;BME280;12362;50.004;8.006;2023-03-14T11:41:33;98466.75;;;12.09;100.00
24230;BME280;12362;50.004;8.006;2023-03-14T11:44:33;98485.75;;;12.00;100.00
24230;BME280;12362;50.004;8.006;2023-03-14T11:50:52;98508.66;;;12.06;100.00
24230;BME280;12362;50.004;8.006;2023-03-14T11:53:48;98546.66;;;11.98;100.00
24230;BME280;12362;50.004;8.006;2023-03-14T11:56:34;98531.47;;;11.93;100.00
24230;BME280;12362;50.004;8.006;2023-03-14T12:10:53;98613.91;;;12.23;100.00
24230;BME280;12362;50.004;8.006;2023-03-14T12:13:20;98600.38;;;12.08;100.00
24230;BME280;12362;50.004;8.006;2023-03-14T12:15:57;98628.56;;;12.24;100.00
24230;BME280;12362;50.004;8.006;2023-03-14T12:18:46;98599.47;;;12.39;100.00
24230;BME280;12362;50.004;8.006;2023-03-14T12:21:41;98615.91;;;12.40;100.00
24230;BME280;12362;50.004;8.006;2023-03-14T12:24:19;98624.75;;;12.78;100.00
24230;BME280;12362;50.004;8.006;2023-03-14T12:30:50;98664.09;;;12.14;100.00
24230;BME280;12362;50.004;8.006;2023-03-14T12:33:36;98680.44;;;11.84;100.00
24230;BME280;12362;50.004;8.006;2023-03-14T12:36:31;98700.91;;;12.30;100.00
24230;BME280;12362;50.004;8.006;2023-03-14T12:39:40;98701.56;;;11.91;100.00
24230;BME280;12362;50.004;8.006;2023-03-14T12:42:19;98721.56;;;11.90;100.00
24230;BME280;12362;50.004;8.006;2023-03-14T12:47:52;98755.53;;;11.67;100.00
24230;BME280;12362;50.004;8.006;2023-03-14T12:50:24;98770.44;;;11.76;100.00
24230;BME280;12362;50.004;8.006;2023-03-14T12:56:55;98780.44;;;11.91;100.00
24230;BME280;12362;50.004;8.006;2023-03-14T13:02:23;98817.69;;;11.70;100.00
24230;BME280;12362;50.004;8.006;2023-03-14T13:10:26;98882.41;;;10.26;100.00
24230;BME280;12362;50.004;8.006;2023-03-14T13:13:25;98882.38;;;10.50;100.00
24230;BME280;12362;50.004;8.006;2023-03-14T13:16:26;98898.03;;;10.95;100.00
24230;BME280;12362;50.004;8.006;2023-03-14T13:19:15;98904.13;;;10.83;100.00
24230;BME280;12362;50.004;8.006;2023-03-14T13:21:50;98908.22;;;11.09;100.00
24230;BME280;12362;50.004;8.006;2023-03-14T13:24:47;98910.94;;;10.73;100.00
24230;BME280;12362;50.004;8.006;2023-03-14T13:27:56;98938.66;;;10.73;100.00
24230;BME280;12362;50.004;8.006;2023-03-14T13:31:12;98928.63;;;11.37;100.00
24230;BME280;12362;50.004;8.006;2023-03-14T13:34:18;98933.53;;;11.63;100.00
24230;BME280;12362;50.004;8.006;2023-03-14T13:37:21;98949.84;;;10.96;100.00
24230;BME280;12362;50.004;8.006;2023-03-14T13:40:33;98963.13;;;11.04;100.00
24230;BME280;12362;50.004;8.006;2023-03-14T13:46:06;98980.41;;;10.93;100.00
24230;BME280;12362;50.004;8.006;2023-03-14T13:49:02;98992.72;;;10.55;100.00
24230;BME280;12362;50.004;8.006;2023-03-14T13:51:40;98991.34;;;10.85;100.00
24230;BME280;12362;50.004;8.006;2023-03-14T13:54:28;99000.28;;;11.05;100.00
24230;BME280;12362;50.004;8.006;2023-03-14T13:57:53;99012.78;;;10.53;100.00
24230;BME280;12362;50.004;8.006;2023-03-14T14:00:28;99043.09;;;10.40;100.00
24230;BME280;12362;50.004;8.006;2023-03-14T14:02:59;99035.72;;;10.34;100.00
24230;BME280;12362;50.004;8.006;2023-03-14T14:05:27;99045.63;;;10.29;100.00
24230;BME280;12362;50.004;8.006;2023-03-14T14:07:53;99054.84;;;10.08;100.00
24230;BME280;12362;50.004;8.006;2023-03-14T14:10:20;99067.81;;;10.33;100.00
24230;BME280;12362;50.004;8.006;2023-03-14T14:12:53;99066.38;;;10.29;100.00
24230;BME280;12362;50.004;8.006;2023-03-14T14:15:31;99076.50;;;10.32;100.00
24230;BME280;12362;50.004;8.006;2023-03-14T14:19:12;99093.25;;;10.03;100.00
24230;BME280;12362;50.004;8.006;2023-03-14T14:22:09;99101.84;;;10.16;100.00
24230;BME280;12362;50.004;8.006;2023-03-14T14:25:06;99107.25;;;10.13;100.00
24230;BME280;12362;50.004;8.006;2023-03-14T14:32:50;99114.59;;;11.28;100.00
24230;BME280;12362;50.004;8.006;2023-03-14T14:35:42;99112.91;;;11.04;100.00
24230;BME280;12362;50.004;8.006;2023-03-14T14:38:22;99128.31;;;11.30;100.00
24230;BME280;12362;50.004;8.006;2023-03-14T14:41:01;99130.13;;;10.82;100.00
24230;BME280;12362;50.004;8.006;2023-03-14T14:43:30;99138.41;;;10.86;100.00
24230;BME280;12362;50.004;8.006;2023-03-14T14:46:06;99140.00;;;11.12;100.00
24230;BME280;12362;50.004;8.006;2023-03-14T14:48:36;99152.28;;;10.62;100.00
24230;BME280;12362;50.004;8.006;2023-03-14T14:59:00;99185.41;;;10.34;100.00
24230;BME280;12362;50.004;8.006;2023-03-14T15:02:29;99193.88;;;10.23;100.00
24230;BME280;12362;50.004;8.006;2023-03-14T16:30:17;99407.28;;;8.57;100.00
24230;BME280;12362;50.004;8.006;2023-03-14T16:32:45;99420.03;;;8.60;100.00
24230;BME280;12362;50.004;8.006;2023-03-14T16:35:18;99421.56;;;8.17;100.00
24230;BME280;12362;50.004;8.006;2023-03-14T17:07:42;99528.13;;;7.07;100.00
24230;BME280;12362;50.004;8.006;2023-03-14T17:24:51;99563.09;;;6.42;100.00
24230;BME280;12362;50.004;8.006;2023-03-14T17:27:18;99568.47;;;6.37;100.00
24230;BME280;12362;50.004;8.006;2023-03-14T17:33:14;99595.16;;;6.17;100.00
24230;BME280;12362;50.004;8.006;2023-03-14T17:35:43;99599.81;;;6.09;100.00
24230;BME280;12362;50.004;8.006;2023-03-14T17:38:22;99598.38;;;5.83;100.00
24230;BME280;12362;50.004;8.006;2023-03-14T17:40:57;99610.75;;;5.74;100.00
24230;BME280;12362;50.004;8.006;2023-03-14T17:47:01;99647.03;;;5.48;100.00
24230;BME280;12362;50.004;8.006;2023-03-14T17:49:30;99652.72;;;5.13;100.00
24230;BME280;12362;50.004;8.006;2023-03-14T17:52:47;99666.19;;;5.20;100.00
24230;BME280;12362;50.004;8.006;2023-03-14T17:55:36;99662.03;;;5.17;100.00
24230;BME280;12362;50.004;8.006;2023-03-14T17:58:11;99681.88;;;5.14;100.00
24230;BME280;12362;50.004;8.006;2023-03-14T18:00:37;99693.03;;;4.91;100.00
24230;BME280;12362;50.004;8.006;2023-03-14T18:03:06;99696.88;;;4.80;100.00
24230;BME280;12362;50.004;8.006;2023-03-14T18:05:38;99707.78;;;4.63;100.00
24230;BME280;12362;50.004;8.006;2023-03-14T18:08:11;99735.84;;;4.69;100.00
24230;BME280;12362;50.004;8.006;2023-03-14T18:10:37;99736.06;;;4.63;100.00
24230;BME280;12362;50.004;8.006;2023-03-14T18:13:10;99747.13;;;4.65;100.00
24230;BME280;12362;50.004;8.006;2023-03-14T18:15:35;99753.88;;;4.68;100.00
24230;BME280;12362;50.004;8.006;2023-03-14T18:22:07;99767.44;;;4.73;100.00
24230;BME280;12362;50.004;8.006;2023-03-14T18:25:04;99772.91;;;4.64;100.00
24230;BME280;12362;50.004;8.006;2023-03-14T18:27:30;99772.38;;;4.79;100.00
24230;BME280;12362;50.004;8.006;2023-03-14T18:29:56;99778.66;;;4.70;100.00
24230;BME280;12362;50.004;8.006;2023-03-14T18:32:29;99786.06;;;4.79;100.00
24230;BME280;12362;50.004;8.006;2023-03-14T18:34:56;99781.00;;;4.76;100.00
24230;BME280;12362;50.004;8.006;2023-03-14T18:37:22;99772.94;;;4.87;100.00
24230;BME280;12362;50.004;8.006;2023-03-14T18:39:47;99780.53;;;4.90;100.00
24230;BME280;12362;50.004;8.006;2023-03-14T18:42:13;99780.03;;;4.80;100.00
24230;BME280;12362;50.004;8.006;2023-03-14T18:44:39;99784.59;;;4.72;100.00
24230;BME280;12362;50.004;8.006;2023-03-14T18:50:32;99817.31;;;4.67;100.00
24230;BME280;12362;50.004;8.006;2023-03-14T19:04:29;99848.03;;;4.46;100.00
24230;BME280;12362;50.004;8.006;2023-03-14T19:06:55;99851.78;;;4.38;100.00
24230;BME280;12362;50.004;8.006;2023-03-14T19:09:21;99868.19;;;4.58;100.00
24230;BME280;12362;50.004;8.006;2023-03-14T19:11:47;99870.25;;;4.48;100.00
24230;BME280;12362;50.004;8.006;2023-03-14T19:14:13;99884.34;;;4.37;100.00
24230;BME280;12362;50.004;8.006;2023-03-14T19:16:47;99882.63;;;4.38;100.00
24230;BME280;12362;50.004;8.006;2023-03-14T19:19:21;99893.41;;;4.47;100.00
24230;BME280;12362;50.004;8.006;2023-03-14T19:21:49;99899.84;;;4.60;100.00
24230;BME280;12362;50.004;8.006;2023-03-14T19:24:18;99907.59;;;4.84;100.00
24230;BME280;12362;50.004;8.006;2023-03-14T19:26:44;99910.38;;;4.78;100.00
24230;BME280;12362;50.004;8.006;2023-03-14T19:29:10;99908.00;;;4.72;100.00
24230;BME280;12362;50.004;8.006;2023-03-14T19:31:36;99913.91;;;4.74;100.00
24230;BME280;12362;50.004;8.006;2023-03-14T19:34:02;99919.34;;;4.67;100.00
24230;BME280;12362;50.004;8.006;2023-03-14T19:36:34;99921.25;;;4.60;100.00
24230;BME280;12362;50.004;8.006;2023-03-14T19:39:04;99918.16;;;4.51;100.00
24230;BME280;12362;50.004;8.006;2023-03-14T19:41:31;99923.03;;;4.58;100.00
24230;BME280;12362;50.004;8.006;2023-03-14T19:44:01;99917.94;;;4.57;100.00